createdAt,value
2019-01-02T00:01:13.622Z,-1.20
2019-01-02T00:03:43.284Z,-1.19
2019-01-02T00:06:12.893Z,-1.37
2019-01-02T00:08:43.047Z,-1.37
2019-01-02T00:11:12.718Z,-1.33
2019-01-02T00:13:42.231Z,-1.33
2019-01-02T00:16:12.138Z,-1.39
2019-01-02T00:18:41.639Z,-1.37
2019-01-02T00:21:11.191Z,-1.44
2019-01-02T00:23:41.308Z,-1.35
2019-01-02T00:26:10.892Z,-1.32
2019-01-02T00:28:40.605Z,-1.35
2019-01-02T00:31:10.545Z,-1.42
2019-01-02T00:33:40.139Z,-1.45
2019-01-02T00:36:09.507Z,-1.44
2019-01-02T00:38:39.530Z,-1.41
2019-01-02T00:41:09.125Z,-1.31
2019-01-02T00:43:38.603Z,-1.44
2019-01-02T00:46:08.553Z,-1.45
2019-01-02T00:48:38.284Z,-1.56
2019-01-02T00:51:08.007Z,-1.53
2019-01-02T00:53:37.648Z,-1.54
2019-01-02T00:56:07.310Z,-1.46
2019-01-02T00:58:36.660Z,-1.47
2019-01-02T01:01:06.440Z,-1.42
2019-01-02T01:03:36.060Z,-1.37
2019-01-02T01:06:06.002Z,-1.42
2019-01-02T01:08:35.749Z,-1.60
2019-01-02T01:11:05.455Z,-1.57
2019-01-02T01:13:35.145Z,-1.59
2019-01-02T01:16:04.791Z,-1.57
2019-01-02T01:18:34.444Z,-1.54
2019-01-02T01:21:04.124Z,-1.46
2019-01-02T01:23:33.824Z,-1.49
2019-01-02T01:26:03.338Z,-1.50
2019-01-02T01:28:32.963Z,-1.50
2019-01-02T01:31:02.539Z,-1.48
2019-01-02T01:33:33.067Z,-1.50
2019-01-02T01:36:03.211Z,-1.59
2019-01-02T01:38:32.669Z,-1.51
2019-01-02T01:41:02.422Z,-1.48
2019-01-02T01:43:32.048Z,-1.50
2019-01-02T01:46:01.618Z,-1.54
2019-01-02T01:48:31.115Z,-1.46
2019-01-02T01:51:00.756Z,-1.47
2019-01-02T01:53:30.432Z,-1.45
2019-01-02T01:55:59.967Z,-1.55
2019-01-02T01:58:29.751Z,-1.56
2019-01-02T02:00:59.467Z,-1.55
2019-01-02T02:03:29.023Z,-1.51
2019-01-02T02:05:58.895Z,-1.41
2019-01-02T02:08:28.608Z,-1.58
2019-01-02T02:10:58.240Z,-1.55
2019-01-02T02:13:27.956Z,-1.69
2019-01-02T02:15:57.527Z,-1.57
2019-01-02T02:18:27.434Z,-1.66
2019-01-02T02:20:56.943Z,-1.67
2019-01-02T02:23:26.484Z,-1.56
2019-01-02T02:25:56.196Z,-1.52
2019-01-02T02:28:25.894Z,-1.48
2019-01-02T02:30:55.372Z,-1.51
2019-01-02T02:33:26.187Z,-1.50
2019-01-02T02:35:55.693Z,-1.61
2019-01-02T02:38:25.339Z,-1.53
2019-01-02T02:40:55.380Z,-1.50
2019-01-02T02:43:24.963Z,-1.49
2019-01-02T02:45:54.587Z,-1.50
2019-01-02T02:48:24.337Z,-1.38
2019-01-02T02:50:54.050Z,-1.38
2019-01-02T02:53:23.588Z,-1.43
2019-01-02T02:55:53.587Z,-1.46
2019-01-02T02:58:23.315Z,-1.62
2019-01-02T03:00:52.939Z,-1.56
2019-01-02T03:03:22.739Z,-1.51
2019-01-02T03:05:52.448Z,-1.57
2019-01-02T03:08:22.088Z,-1.67
2019-01-02T03:10:52.067Z,-1.54
2019-01-02T03:13:21.887Z,-1.62
2019-01-02T03:15:51.469Z,-1.72
2019-01-02T03:18:21.143Z,-1.63
2019-01-02T03:20:50.894Z,-1.72
2019-01-02T03:23:22.314Z,-1.70
2019-01-02T03:25:51.788Z,-1.66
2019-01-02T03:28:21.282Z,-1.57
2019-01-02T03:30:51.090Z,-1.76
2019-01-02T03:33:20.468Z,-1.76
2019-01-02T03:35:49.876Z,-1.76
2019-01-02T03:38:19.239Z,-1.87
2019-01-02T03:40:48.959Z,-1.90
2019-01-02T03:43:18.371Z,-1.96
2019-01-02T03:45:47.863Z,-1.93
2019-01-02T03:48:17.246Z,-2.03
2019-01-02T03:50:46.944Z,-2.01
2019-01-02T03:53:16.792Z,-2.02
2019-01-02T03:55:46.870Z,-2.03
2019-01-02T03:58:16.376Z,-2.07
2019-01-02T04:00:46.176Z,-2.09
2019-01-02T04:03:15.948Z,-2.21
2019-01-02T04:05:45.509Z,-2.34
2019-01-02T04:08:15.402Z,-2.50
2019-01-02T04:10:45.144Z,-2.69
2019-01-02T04:13:14.836Z,-2.64
2019-01-02T04:15:44.680Z,-2.72
2019-01-02T04:18:14.345Z,-2.71
2019-01-02T04:20:43.986Z,-2.68
2019-01-02T04:23:13.956Z,-2.83
2019-01-02T04:25:43.396Z,-2.94
2019-01-02T04:28:15.946Z,-2.96
2019-01-02T04:30:45.579Z,-2.95
2019-01-02T04:33:15.203Z,-2.92
2019-01-02T04:35:45.100Z,-2.94
2019-01-02T04:38:14.745Z,-3.00
2019-01-02T04:40:44.448Z,-3.05
2019-01-02T04:43:14.375Z,-3.06
2019-01-02T04:45:44.060Z,-3.07
2019-01-02T04:48:13.540Z,-3.19
2019-01-02T04:50:43.091Z,-3.27
2019-01-02T04:53:12.803Z,-3.32
2019-01-02T04:55:42.297Z,-3.36
2019-01-02T04:58:12.229Z,-3.38
2019-01-02T05:00:41.744Z,-3.37
2019-01-02T05:03:11.062Z,-3.26
2019-01-02T05:05:40.719Z,-3.12
2019-01-02T05:08:10.221Z,-3.12
2019-01-02T05:10:39.835Z,-3.05
2019-01-02T05:13:09.929Z,-3.06
2019-01-02T05:15:39.666Z,-2.95
2019-01-02T05:18:09.268Z,-2.91
2019-01-02T05:20:39.239Z,-2.90
2019-01-02T05:23:09.019Z,-2.92
2019-01-02T05:25:39.047Z,-2.91
2019-01-02T05:28:08.536Z,-2.98
2019-01-02T05:30:38.228Z,-2.93
2019-01-02T05:33:07.765Z,-3.13
2019-01-02T05:35:37.601Z,-3.32
2019-01-02T05:38:07.324Z,-3.29
2019-01-02T05:40:37.084Z,-3.47
2019-01-02T05:43:06.625Z,-3.47
2019-01-02T05:45:36.087Z,-3.34
2019-01-02T05:48:05.701Z,-3.32
2019-01-02T05:50:35.423Z,-3.14
2019-01-02T05:53:05.013Z,-3.29
2019-01-02T05:55:35.087Z,-3.29
2019-01-02T05:58:04.452Z,-3.29
2019-01-02T06:00:39.689Z,-3.27
2019-01-02T06:03:04.028Z,-3.19
2019-01-02T06:05:33.590Z,-3.08
2019-01-02T06:08:03.095Z,-2.98
2019-01-02T06:10:32.826Z,-3.00
2019-01-02T06:13:02.418Z,-2.92
2019-01-02T06:15:32.107Z,-3.08
2019-01-02T06:18:01.941Z,-2.99
2019-01-02T06:20:31.535Z,-2.87
2019-01-02T06:23:01.127Z,-3.01
2019-01-02T06:25:30.926Z,-3.03
2019-01-02T06:28:00.475Z,-3.10
2019-01-02T06:30:30.059Z,-2.98
2019-01-02T06:33:00.046Z,-2.94
2019-01-02T06:35:29.680Z,-2.91
2019-01-02T06:37:59.403Z,-2.85
2019-01-02T06:40:29.236Z,-2.80
2019-01-02T06:42:58.919Z,-2.68
2019-01-02T06:45:28.632Z,-2.66
2019-01-02T06:47:58.284Z,-2.61
2019-01-02T06:50:27.830Z,-2.57
2019-01-02T06:52:57.599Z,-2.49
2019-01-02T06:55:27.484Z,-2.44
2019-01-02T06:57:56.964Z,-2.29
2019-01-02T07:00:30.814Z,-2.18
2019-01-02T07:03:00.447Z,-2.08
2019-01-02T07:05:29.891Z,-2.01
2019-01-02T07:07:59.538Z,-1.91
2019-01-02T07:10:29.062Z,-1.95
2019-01-02T07:12:58.615Z,-1.97
2019-01-02T07:15:28.580Z,-1.94
2019-01-02T07:17:58.244Z,-1.91
2019-01-02T07:20:28.051Z,-1.99
2019-01-02T07:22:58.372Z,-2.07
2019-01-02T07:25:28.087Z,-2.05
2019-01-02T07:27:57.652Z,-2.02
2019-01-02T07:30:27.749Z,-1.98
2019-01-02T07:32:57.659Z,-1.90
2019-01-02T07:35:38.060Z,-1.78
2019-01-02T07:39:38.013Z,-1.98
2019-01-02T07:42:24.332Z,-1.78
2019-01-02T07:45:34.582Z,-1.85
2019-01-02T07:50:21.197Z,-1.94
2019-01-02T07:53:16.262Z,-1.78
2019-01-02T07:56:00.592Z,-1.64
2019-01-02T07:59:41.694Z,-1.70
2019-01-02T08:03:28.021Z,-1.69
2019-01-02T08:06:23.153Z,-2.06
2019-01-02T08:11:05.515Z,-1.76
2019-01-02T08:15:03.005Z,-1.50
2019-01-02T08:17:43.055Z,-1.21
2019-01-02T08:20:25.992Z,-1.09
2019-01-02T08:23:20.547Z,-1.08
2019-01-02T08:27:11.692Z,-1.12
2019-01-02T08:29:54.821Z,-0.79
2019-01-02T08:32:50.368Z,-0.74
2019-01-02T08:37:45.533Z,-0.77
2019-01-02T08:42:31.017Z,-0.59
2019-01-02T08:45:13.419Z,-0.48
2019-01-02T08:50:02.262Z,-0.45
2019-01-02T08:52:45.379Z,-0.49
2019-01-02T08:57:00.622Z,-0.54
2019-01-02T08:59:57.423Z,-0.49
2019-01-02T09:02:54.938Z,-0.44
2019-01-02T09:05:38.936Z,-0.38
2019-01-02T09:09:25.296Z,-0.42
2019-01-02T09:12:03.817Z,-0.18
2019-01-02T09:16:46.839Z,-0.07
2019-01-02T09:19:57.023Z,0.29
2019-01-02T09:23:36.119Z,0.38
2019-01-02T09:26:39.366Z,0.72
2019-01-02T09:29:25.080Z,1.05
2019-01-02T09:32:09.119Z,1.48
2019-01-02T09:34:56.577Z,1.45
2019-01-02T09:40:44.459Z,1.80
2019-01-02T09:43:39.029Z,1.28
2019-01-02T09:46:25.047Z,1.26
2019-01-02T09:49:38.373Z,1.53
2019-01-02T09:52:28.296Z,1.62
2019-01-02T09:55:22.711Z,1.74
2019-01-02T09:59:05.257Z,1.79
2019-01-02T10:01:47.492Z,2.12
2019-01-02T10:04:27.212Z,2.25
2019-01-02T10:07:09.992Z,2.37
2019-01-02T10:11:56.325Z,2.40
2019-01-02T10:14:41.655Z,2.47
2019-01-02T10:17:24.012Z,2.30
2019-01-02T10:20:08.260Z,2.01
2019-01-02T10:22:49.511Z,2.18
2019-01-02T10:25:31.548Z,2.08
2019-01-02T10:28:16.292Z,1.94
2019-01-02T10:31:03.291Z,1.87
2019-01-02T10:33:49.621Z,1.94
2019-01-02T10:37:06.419Z,1.77
2019-01-02T10:39:52.541Z,1.76
2019-01-02T10:42:34.909Z,1.75
2019-01-02T10:45:20.400Z,1.75
2019-01-02T10:48:14.140Z,1.62
2019-01-02T10:50:54.570Z,1.64
2019-01-02T10:53:46.163Z,1.50
2019-01-02T10:57:26.919Z,1.67
2019-01-02T11:00:19.107Z,1.83
2019-01-02T11:04:02.341Z,1.81
2019-01-02T11:07:14.159Z,1.84
2019-01-02T11:10:10.582Z,1.92
2019-01-02T11:12:57.037Z,2.13
2019-01-02T11:15:37.949Z,2.21
2019-01-02T11:18:32.028Z,2.06
2019-01-02T11:21:16.556Z,1.95
2019-01-02T11:24:11.840Z,1.94
2019-01-02T11:28:56.910Z,2.09
2019-01-02T11:32:27.399Z,3.56
2019-01-02T11:35:40.406Z,4.92
2019-01-02T11:38:53.169Z,4.70
2019-01-02T11:41:32.377Z,3.75
2019-01-02T11:45:13.173Z,3.17
2019-01-02T11:47:42.812Z,3.51
2019-01-02T11:50:14.218Z,4.75
2019-01-02T11:52:44.512Z,6.05
2019-01-02T11:55:13.954Z,6.92
2019-01-02T11:57:43.923Z,6.70
2019-01-02T12:00:15.883Z,5.32
2019-01-02T12:02:45.544Z,4.92
2019-01-02T12:05:15.136Z,5.04
2019-01-02T12:07:44.730Z,4.76
2019-01-02T12:10:15.861Z,4.42
2019-01-02T12:12:45.373Z,4.39
2019-01-02T12:15:15.157Z,4.78
2019-01-02T12:17:44.722Z,4.79
2019-01-02T12:20:14.246Z,4.40
2019-01-02T12:22:43.877Z,4.37
2019-01-02T12:25:13.538Z,5.56
2019-01-02T12:27:43.162Z,6.82
2019-01-02T12:30:14.708Z,6.59
2019-01-02T12:32:45.539Z,4.83
2019-01-02T12:35:15.423Z,3.82
2019-01-02T12:37:45.081Z,3.43
2019-01-02T12:40:14.853Z,2.90
2019-01-02T12:42:44.723Z,2.83
2019-01-02T12:45:14.647Z,2.57
2019-01-02T12:47:44.719Z,2.44
2019-01-02T12:50:14.370Z,2.05
2019-01-02T12:52:44.152Z,2.11
2019-01-02T12:55:13.882Z,1.95
2019-01-02T12:57:43.696Z,1.95
2019-01-02T13:00:14.565Z,2.19
2019-01-02T13:03:08.202Z,3.44
2019-01-02T13:05:48.127Z,5.57
2019-01-02T13:08:29.505Z,6.58
2019-01-02T13:11:10.069Z,7.08
2019-01-02T13:14:24.318Z,8.44
2019-01-02T13:17:36.491Z,7.42
2019-01-02T13:22:20.772Z,7.60
2019-01-02T13:25:00.299Z,5.60
2019-01-02T13:28:55.855Z,5.10
2019-01-02T13:31:41.559Z,3.45
2019-01-02T13:34:33.638Z,3.19
2019-01-02T13:37:13.236Z,2.86
2019-01-02T13:39:56.492Z,2.81
2019-01-02T13:42:37.820Z,2.55
2019-01-02T13:45:20.318Z,2.71
2019-01-02T13:48:01.805Z,2.61
2019-01-02T13:51:12.465Z,2.45
2019-01-02T13:53:41.769Z,2.27
2019-01-02T13:56:15.285Z,2.10
2019-01-02T13:58:44.843Z,2.07
2019-01-02T14:01:14.319Z,1.93
2019-01-02T14:03:45.557Z,2.02
2019-01-02T14:06:14.971Z,1.69
2019-01-02T14:08:44.472Z,1.52
2019-01-02T14:11:14.343Z,1.51
2019-01-02T14:13:43.723Z,1.51
2019-01-02T14:16:13.103Z,1.39
2019-01-02T14:18:42.471Z,1.21
2019-01-02T14:21:11.771Z,1.23
2019-01-02T14:23:41.403Z,1.24
2019-01-02T14:26:10.760Z,1.14
2019-01-02T14:28:40.207Z,1.06
2019-01-02T14:31:09.560Z,1.10
2019-01-02T14:33:38.912Z,0.95
2019-01-02T14:36:08.271Z,0.85
2019-01-02T14:38:37.674Z,0.85
2019-01-02T14:41:07.351Z,0.77
2019-01-02T14:43:36.707Z,0.50
2019-01-02T14:46:06.034Z,0.46
2019-01-02T14:48:35.403Z,0.49
2019-01-02T14:51:04.804Z,0.40
2019-01-02T14:53:34.488Z,0.45
2019-01-02T14:56:03.863Z,0.42
2019-01-02T14:58:33.154Z,0.36
2019-01-02T15:01:02.586Z,0.29
2019-01-02T15:03:31.995Z,0.19
2019-01-02T15:06:01.555Z,0.26
2019-01-02T15:08:30.903Z,0.27
2019-01-02T15:11:00.180Z,0.32
2019-01-02T15:13:29.597Z,0.27
2019-01-02T15:15:58.882Z,0.10
2019-01-02T15:18:28.616Z,0.00
2019-01-02T15:20:58.377Z,-0.09
2019-01-02T15:23:27.871Z,-0.13
2019-01-02T15:25:57.271Z,-0.15
2019-01-02T15:28:26.743Z,-0.21
2019-01-02T15:30:56.168Z,-0.31
2019-01-02T15:33:25.743Z,-0.25
2019-01-02T15:35:55.252Z,-0.35
2019-01-02T15:38:24.619Z,-0.42
2019-01-02T15:40:54.024Z,-0.45
2019-01-02T15:43:23.719Z,-0.43
2019-01-02T15:45:53.276Z,-0.49
2019-01-02T15:48:22.584Z,-0.52
2019-01-02T15:50:52.110Z,-0.61
2019-01-02T15:53:21.388Z,-0.65
2019-01-02T15:55:50.728Z,-0.65
2019-01-02T15:58:20.276Z,-0.65
2019-01-02T16:00:49.588Z,-0.70
2019-01-02T16:03:18.943Z,-0.64
2019-01-02T16:05:48.411Z,-0.65
2019-01-02T16:08:17.825Z,-0.66
2019-01-02T16:10:47.413Z,-0.56
2019-01-02T16:13:18.389Z,-0.57
2019-01-02T16:15:47.850Z,-0.63
2019-01-02T16:18:17.224Z,-0.60
2019-01-02T16:20:47.160Z,-0.69
2019-01-02T16:23:16.758Z,-0.73
2019-01-02T16:25:46.135Z,-0.43
2019-01-02T16:28:15.569Z,-0.65
2019-01-02T16:30:45.071Z,-0.67
2019-01-02T16:33:14.617Z,-0.73
2019-01-02T16:35:44.216Z,-0.77
2019-01-02T16:38:13.616Z,-0.74
2019-01-02T16:40:43.037Z,-0.70
2019-01-02T16:43:12.500Z,-0.63
2019-01-02T16:45:41.771Z,-0.68
2019-01-02T16:48:11.160Z,-0.66
2019-01-02T16:50:40.974Z,-0.54
2019-01-02T16:53:10.261Z,-0.60
2019-01-02T16:55:39.606Z,-0.56
2019-01-02T16:58:09.260Z,-0.73
2019-01-02T17:00:38.544Z,-0.55
2019-01-02T17:03:07.917Z,-0.56
2019-01-02T17:05:37.482Z,-0.56
2019-01-02T17:08:06.885Z,-0.52
2019-01-02T17:10:36.252Z,-0.50
2019-01-02T17:13:05.807Z,-0.52
2019-01-02T17:15:35.111Z,-0.54
2019-01-02T17:18:04.486Z,-0.53
2019-01-02T17:20:34.174Z,-0.53
2019-01-02T17:23:03.475Z,-0.50
2019-01-02T17:25:32.787Z,-0.47
2019-01-02T17:28:02.427Z,-0.43
2019-01-02T17:30:31.766Z,-0.49
2019-01-02T17:33:01.142Z,-0.63
2019-01-02T17:35:31.613Z,-0.64
2019-01-02T17:38:01.035Z,-0.75
2019-01-02T17:40:30.608Z,-0.72
2019-01-02T17:43:00.725Z,-0.80
2019-01-02T17:45:29.618Z,-0.62
2019-01-02T17:47:58.989Z,-0.64
2019-01-02T17:50:28.606Z,-0.66
2019-01-02T17:52:57.998Z,-0.69
2019-01-02T17:55:27.441Z,-0.65
2019-01-02T17:57:57.755Z,-0.61
2019-01-02T18:00:27.235Z,-0.59
2019-01-02T18:02:56.633Z,-0.55
2019-01-02T18:05:26.498Z,-0.52
2019-01-02T18:07:55.778Z,-0.42
2019-01-02T18:10:25.172Z,-0.37
2019-01-02T18:12:54.509Z,-0.42
2019-01-02T18:15:23.789Z,-0.42
2019-01-02T18:17:53.144Z,-0.41
2019-01-02T18:20:22.840Z,-0.42
2019-01-02T18:22:52.223Z,-0.50
2019-01-02T18:25:21.645Z,-0.39
2019-01-02T18:27:51.440Z,-0.37
2019-01-02T18:30:20.857Z,-0.40
2019-01-02T18:32:50.318Z,-0.42
2019-01-02T18:35:19.969Z,-0.47
2019-01-02T18:37:49.749Z,-0.43
2019-01-02T18:40:19.196Z,-0.44
2019-01-02T18:42:48.891Z,-0.45
2019-01-02T18:45:18.313Z,-0.53
2019-01-02T18:47:48.721Z,-0.52
2019-01-02T18:50:24.788Z,-0.49
2019-01-02T18:52:59.676Z,-0.46
2019-01-02T18:55:29.316Z,-0.45
2019-01-02T18:57:58.277Z,-0.51
2019-01-02T19:00:27.252Z,-0.54
2019-01-02T19:02:57.211Z,-0.43
2019-01-02T19:05:27.421Z,-0.40
2019-01-02T19:07:57.096Z,-0.25
2019-01-02T19:10:27.051Z,-0.36
2019-01-02T19:12:56.660Z,-0.43
2019-01-02T19:15:26.338Z,-0.44
2019-01-02T19:17:56.295Z,-0.41
2019-01-02T19:20:26.734Z,-0.41
2019-01-02T19:22:56.823Z,-0.45
2019-01-02T19:25:26.381Z,-0.40
2019-01-02T19:27:58.257Z,-0.40
2019-01-02T19:30:26.883Z,-0.45
2019-01-02T19:32:56.517Z,-0.43
2019-01-02T19:35:26.217Z,-0.40
2019-01-02T19:37:56.567Z,-0.36
2019-01-02T19:40:25.959Z,-0.40
2019-01-02T19:42:55.552Z,-0.36
2019-01-02T19:45:26.245Z,-0.41
2019-01-02T19:47:55.683Z,-0.34
2019-01-02T19:50:25.120Z,-0.39
2019-01-02T19:52:54.967Z,-0.28
2019-01-02T19:55:24.631Z,-0.26
2019-01-02T19:57:54.133Z,-0.31
2019-01-02T20:00:23.715Z,-0.34
2019-01-02T20:02:53.372Z,-0.41
2019-01-02T20:05:22.936Z,-0.37
2019-01-02T20:07:52.710Z,-0.41
2019-01-02T20:10:22.971Z,-0.33
2019-01-02T20:12:52.388Z,-0.40
2019-01-02T20:15:22.359Z,-0.39
2019-01-02T20:17:52.073Z,-0.46
2019-01-02T20:20:21.574Z,-0.44
2019-01-02T20:22:51.323Z,-0.44
2019-01-02T20:25:21.072Z,-0.39
2019-01-02T20:27:50.489Z,-0.27
2019-01-02T20:30:20.049Z,-0.34
2019-01-02T20:32:49.474Z,-0.39
2019-01-02T20:35:18.827Z,-0.36
2019-01-02T20:37:48.543Z,-0.39
2019-01-02T20:40:17.920Z,-0.45
2019-01-02T20:42:47.397Z,-0.39
2019-01-02T20:45:17.442Z,-0.51
2019-01-02T20:47:48.081Z,-0.59
2019-01-02T20:50:16.722Z,-0.52
2019-01-02T20:52:46.294Z,-0.49
2019-01-02T20:55:15.880Z,-0.53
2019-01-02T20:57:45.555Z,-0.53
2019-01-02T21:00:15.199Z,-0.58
2019-01-02T21:02:44.887Z,-0.56
2019-01-02T21:05:14.657Z,-0.60
2019-01-02T21:07:44.672Z,-0.61
2019-01-02T21:10:14.280Z,-0.63
2019-01-02T21:12:43.810Z,-0.69
2019-01-02T21:15:13.614Z,-0.69
2019-01-02T21:17:42.962Z,-0.69
2019-01-02T21:20:12.385Z,-0.61
2019-01-02T21:22:41.829Z,-0.59
2019-01-02T21:25:11.549Z,-0.52
2019-01-02T21:27:41.258Z,-0.59
2019-01-02T21:30:11.171Z,-0.55
2019-01-02T21:32:40.787Z,-0.52
2019-01-02T21:35:10.208Z,-0.50
2019-01-02T21:37:39.995Z,-0.49
2019-01-02T21:40:09.795Z,-0.45
2019-01-02T21:42:39.228Z,-0.48
2019-01-02T21:45:08.911Z,-0.50
2019-01-02T21:47:38.549Z,-0.62
2019-01-02T21:50:08.629Z,-0.62
2019-01-02T21:52:38.473Z,-0.65
2019-01-02T21:55:07.890Z,-0.61
2019-01-02T21:57:37.253Z,-0.62
2019-01-02T22:00:09.375Z,-0.68
2019-01-02T22:02:40.354Z,-0.57
2019-01-02T22:05:08.500Z,-0.65
2019-01-02T22:07:37.895Z,-0.58
2019-01-02T22:10:07.591Z,-0.58
2019-01-02T22:12:36.971Z,-0.62
2019-01-02T22:15:07.563Z,-0.60
2019-01-02T22:17:36.988Z,-0.60
2019-01-02T22:20:06.794Z,-0.69
2019-01-02T22:22:36.702Z,-0.60
2019-01-02T22:25:06.959Z,-0.60
2019-01-02T22:27:36.287Z,-0.62
2019-01-02T22:30:07.046Z,-0.65
2019-01-02T22:32:37.285Z,-0.69
2019-01-02T22:35:06.864Z,-0.74
2019-01-02T22:37:36.453Z,-0.75
2019-01-02T22:40:06.564Z,-0.71
2019-01-02T22:42:35.969Z,-0.75
2019-01-02T22:45:05.754Z,-0.66
2019-01-02T22:47:35.051Z,-0.73
2019-01-02T22:50:05.584Z,-0.76
2019-01-02T22:52:35.023Z,-0.69
2019-01-02T22:55:04.310Z,-0.68
2019-01-02T22:57:33.848Z,-0.61
2019-01-02T23:00:03.512Z,-0.52
2019-01-02T23:02:39.012Z,-0.48
2019-01-02T23:07:17.872Z,-0.51
2019-01-02T23:09:55.185Z,-0.49
2019-01-02T23:14:30.896Z,-0.48
2019-01-02T23:17:06.171Z,-0.53
2019-01-02T23:19:44.651Z,-0.48
2019-01-02T23:22:19.182Z,-0.47
2019-01-02T23:26:55.728Z,-0.52
2019-01-02T23:31:31.514Z,-0.64
2019-01-02T23:34:08.084Z,-0.53
2019-01-02T23:38:44.623Z,-0.53
2019-01-02T23:41:21.279Z,-0.46
2019-01-02T23:44:01.722Z,-0.49
2019-01-02T23:46:36.453Z,-0.49
2019-01-02T23:51:14.127Z,-0.55
2019-01-02T23:53:48.861Z,-0.55
2019-01-02T23:56:23.432Z,-0.57
